• Join FlightAware (Why Join?)
  • Login
  • US Flag 
06:48AM EDT


 

Airport Tracker/Info


-or-


 

Live Flight TrackerFlight Track Log ✈ FDX1570 ✈ 02-Jul-2013 ✈ KMEM - KALB

Flight Track Log - Related Links

Times and Time Zones

All times are in EDT time to prevent confusion due to time zone crossing. See the FDX1570 flight status page for this flight to view local times or setup timezone preferences in your user account.

Time Position Orientation Groundspeed Altitude Reporting Facility
EDT Latitude Longitude Course Direction KTS MPH feet Rate Location/Type
04:20AM 35.0167 -89.9667 165° South 182 209 1,100  Level KMEM
04:21AM 34.9667 -89.9500 165° South 221 254 2,800 2,040 Climbing KMEM
04:22AM 34.9833 -89.8667 76° East 273 314 5,200 2,640 Climbing KMEM
04:23AM 35.0167 -89.7833 64° Northeast 281 323 8,400 2,280 Climbing KMEM
04:25AM 35.0617 -89.6467 68° East 320 368 11,200 1,860 Climbing Memphis Center
04:26AM 35.1025 -89.5272 67° East 354 407 13,000 2,040 Climbing Memphis Center
04:27AM 35.1456 -89.4047 67° East 384 442 15,300 2,160 Climbing Memphis Center
04:28AM 35.1986 -89.2594 66° East 406 467 17,400 2,100 Climbing Memphis Center
04:29AM 35.2494 -89.1239 65° Northeast 426 490 19,500 1,800 Climbing Memphis Center
04:30AM 35.3169 -88.9906 58° Northeast 437 503 21,100 1,620 Climbing Memphis Center
04:31AM 35.3861 -88.8544 58° Northeast 459 528 22,800 1,560 Climbing Memphis Center
04:32AM 35.4575 -88.7156 58° Northeast 470 541 24,300 1,740 Climbing Memphis Center
04:38AM 35.8920 -87.8650 58° Northeast 508 585 34,600 1,800 Climbing FlightAware
04:38AM 35.9440 -87.7610 58° Northeast 505 581 35,800 1,680 Climbing FlightAware
04:39AM 35.9930 -87.6640 58° Northeast 500 575 36,900 840 Climbing FlightAware
04:40AM 36.0460 -87.5580 58° Northeast 509 586 37,000 60 Climbing FlightAware
04:40AM 36.0910 -87.4660 59° Northeast 512 589 37,000  Level FlightAware
04:41AM 36.1410 -87.3660 58° Northeast 516 594 37,000  Level FlightAware
04:42AM 36.1900 -87.2680 58° Northeast 517 595 37,000  Level FlightAware
04:42AM 36.2450 -87.1570 58° Northeast 516 594 37,000  Level FlightAware
04:43AM 36.2920 -87.0580 59° Northeast 516 594 37,000  Level FlightAware
04:44AM 36.3500 -86.9420 58° Northeast 516 594 37,000  Level FlightAware
04:44AM 36.4000 -86.8380 59° Northeast 518 596 37,000  Level FlightAware
04:45AM 36.4540 -86.7260 59° Northeast 518 596 37,000  Level FlightAware
04:46AM 36.5070 -86.6180 59° Northeast 519 597 37,000  Level FlightAware
04:47AM 36.5520 -86.5240 59° Northeast 520 598 37,000  Level FlightAware
04:48AM 36.6270 -86.3690 59° Northeast 522 601 37,000  Level FlightAware
04:48AM 36.6910 -86.2350 59° Northeast 521 600 37,000  Level FlightAware
04:49AM 36.7350 -86.1420 59° Northeast 522 601 37,000  Level FlightAware
04:49AM 36.7639 -86.0831 59° Northeast 523 602 37,000  Level FlightAware ADS-B
04:50AM 36.8029 -86.0002 60° Northeast 523 602 37,000  Level FlightAware ADS-B
04:50AM 36.8400 -85.9224 59° Northeast 523 602 37,000  Level FlightAware ADS-B
04:51AM 36.8789 -85.8390 60° Northeast 523 602 37,000  Level FlightAware ADS-B
04:52AM 36.9267 -85.7400 59° Northeast 524 603 37,000  Level FlightAware ADS-B
04:52AM 36.9860 -85.6150 59° Northeast 526 605 37,000  Level FlightAware
04:53AM 37.0450 -85.4860 60° Northeast 527 606 37,000  Level FlightAware
04:54AM 37.0910 -85.3890 59° Northeast 527 606 37,000  Level FlightAware
04:54AM 37.1300 -85.3040 60° Northeast 526 605 37,000  Level FlightAware
04:55AM 37.1978 -85.1594 59° Northeast 526 605 37,000  Level FlightAware ADS-B
04:56AM 37.2416 -85.0644 60° Northeast 526 605 37,000  Level FlightAware ADS-B
04:57AM 37.2998 -84.9378 60° Northeast 526 605 37,000  Level FlightAware ADS-B
04:57AM 37.3560 -84.8160 60° Northeast 527 606 37,000  Level FlightAware
04:58AM 37.4025 -84.7127 60° Northeast 527 606 37,000  Level FlightAware ADS-B
04:59AM 37.4482 -84.6115 60° Northeast 529 609 37,000  Level FlightAware ADS-B
04:59AM 37.4980 -84.5050 59° Northeast 528 608 37,000  Level FlightAware
05:00AM 37.5580 -84.3714 60° Northeast 529 609 37,000  Level FlightAware ADS-B
05:01AM 37.6060 -84.2640 61° Northeast 528 608 37,000  Level FlightAware
05:01AM 37.6460 -84.1790 59° Northeast 529 609 37,000  Level FlightAware
05:02AM 37.7030 -84.0650 58° Northeast 530 610 37,000  Level FlightAware
05:03AM 37.7420 -83.9850 58° Northeast 530 610 37,000  Level FlightAware
05:04AM 37.7950 -83.8780 58° Northeast 530 610 37,000  Level FlightAware
05:04AM 37.8330 -83.8010 58° Northeast 530 610 37,000  Level FlightAware
05:05AM 37.8870 -83.6920 58° Northeast 530 610 37,000  Level FlightAware
05:06AM 37.9290 -83.6070 58° Northeast 530 610 37,000  Level FlightAware
05:06AM 37.9700 -83.5240 58° Northeast 530 610 37,000  Level FlightAware
05:07AM 38.0080 -83.4450 59° Northeast 530 610 37,000  Level FlightAware
05:08AM 38.1850 -83.2370 43° Northeast 535 616 37,000  Level FlightAware
05:08AM 38.2410 -83.1380 54° Northeast 535 616 37,000  Level FlightAware
05:09AM 38.3050 -83.0250 54° Northeast 536 617 37,000  Level FlightAware
05:10AM 38.3650 -82.9200 54° Northeast 539 620 37,000  Level FlightAware
05:10AM 38.4240 -82.8140 55° Northeast 540 621 37,000  Level FlightAware
05:11AM 38.4880 -82.7000 54° Northeast 541 623 37,000  Level FlightAware
05:12AM 38.5350 -82.6170 54° Northeast 542 624 37,000  Level FlightAware
05:12AM 38.6030 -82.4940 55° Northeast 542 624 37,000  Level FlightAware
05:13AM 38.6560 -82.4000 54° Northeast 543 625 37,000  Level FlightAware
05:14AM 38.7290 -82.2660 55° Northeast 544 626 37,000  Level FlightAware
05:15AM 38.7930 -82.1500 55° Northeast 544 626 37,000  Level FlightAware
05:15AM 38.8550 -82.0390 54° Northeast 542 624 37,000  Level FlightAware
05:16AM 38.9150 -81.9290 55° Northeast 542 624 37,000  Level FlightAware
05:17AM 38.9710 -81.8260 55° Northeast 544 626 37,000  Level FlightAware
05:17AM 39.0350 -81.7090 55° Northeast 545 627 37,000  Level FlightAware
05:18AM 39.0910 -81.6050 55° Northeast 544 626 37,000  Level FlightAware
05:19AM 39.1560 -81.4860 55° Northeast 541 623 37,000  Level FlightAware
05:19AM 39.2130 -81.3800 55° Northeast 539 620 37,000  Level FlightAware
05:20AM 39.2660 -81.2800 56° Northeast 539 620 37,000  Level FlightAware
05:21AM 39.3220 -81.1770 55° Northeast 540 621 37,000  Level FlightAware
05:22AM 39.3860 -81.0570 55° Northeast 539 620 37,000  Level FlightAware
05:22AM 39.4360 -80.9610 56° Northeast 540 621 37,000  Level FlightAware
05:23AM 39.4930 -80.8540 55° Northeast 541 623 37,000  Level FlightAware
05:23AM 39.5480 -80.7470 56° Northeast 541 623 37,000  Level FlightAware
05:24AM 39.6050 -80.6400 55° Northeast 542 624 37,000  Level FlightAware
05:25AM 39.6610 -80.5310 56° Northeast 543 625 37,000  Level FlightAware
05:25AM 39.7170 -80.4230 56° Northeast 544 626 37,000  Level FlightAware
05:26AM 39.7640 -80.3300 57° Northeast 546 628 37,000  Level FlightAware
05:27AM 39.8340 -80.1930 56° Northeast 547 629 37,000  Level FlightAware
05:28AM 39.8880 -80.0860 57° Northeast 546 628 37,000  Level FlightAware
05:28AM 39.9520 -79.9600 56° Northeast 547 629 37,000  Level FlightAware
05:29AM 40.0080 -79.8500 56° Northeast 547 629 37,000  Level FlightAware
05:30AM 40.0570 -79.7530 57° Northeast 548 631 37,000  Level FlightAware
05:30AM 40.1160 -79.6340 57° Northeast 549 632 37,000  Level FlightAware
05:31AM 40.1780 -79.5120 56° Northeast 550 633 37,000  Level FlightAware
05:32AM 40.2320 -79.4030 57° Northeast 548 631 37,000  Level FlightAware
05:32AM 40.2920 -79.2810 57° Northeast 547 629 37,000  Level FlightAware
05:33AM 40.3470 -79.1700 57° Northeast 546 628 37,000  Level FlightAware
05:34AM 40.4030 -79.0560 57° Northeast 545 627 37,000  Level FlightAware
05:34AM 40.4520 -78.9560 57° Northeast 545 627 37,000  Level FlightAware
05:35AM 40.5130 -78.8330 57° Northeast 544 626 37,000  Level FlightAware
05:36AM 40.5640 -78.7270 58° Northeast 543 625 37,000  Level FlightAware
05:36AM 40.6130 -78.6270 57° Northeast 542 624 37,000  Level FlightAware
05:37AM 40.6700 -78.5080 58° Northeast 540 621 37,000  Level FlightAware
05:37AM 40.6856 -78.4747 58° Northeast 541 623 37,000  Level FlightAware ADS-B
05:38AM 40.7210 -78.4030 57° Northeast 539 620 37,000  Level FlightAware
05:38AM 40.7625 -78.3167 58° Northeast 540 621 37,000  Level FlightAware ADS-B
05:39AM 40.8360 -78.1620 58° Northeast 531 611 37,000  Level FlightAware
05:40AM 40.8800 -78.0700 58° Northeast 531 611 37,000 -120 Level FlightAware
05:40AM 40.9390 -77.9460 58° Northeast 532 612 36,900 -780 Descending FlightAware
05:41AM 40.9870 -77.8390 59° Northeast 536 617 35,900 -1,980 Descending FlightAware
05:42AM 41.0439 -77.7084 60° Northeast 533 613 34,300 -2,460 Descending FlightAware ADS-B
05:42AM 41.0881 -77.6074 60° Northeast 530 610 32,900 -2,520 Descending FlightAware ADS-B
05:43AM 41.1293 -77.5144 60° Northeast 533 613 31,500 -2,340 Descending FlightAware ADS-B
05:43AM 41.1706 -77.4195 60° Northeast 523 602 30,300 -1,380 Descending FlightAware ADS-B
05:45AM 41.2608 -77.2132 60° Northeast 495 570 29,000 -780 Descending FlightAware ADS-B
05:45AM 41.2946 -77.1362 60° Northeast 476 548 29,000  Level FlightAware ADS-B
05:46AM 41.3358 -77.0428 60° Northeast 475 547 29,000  Level FlightAware ADS-B
05:46AM 41.3708 -76.9617 60° Northeast 478 550 29,000  Level FlightAware ADS-B
05:47AM 41.4045 -76.8826 60° Northeast 477 549 29,000  Level FlightAware ADS-B
05:47AM 41.4381 -76.8060 60° Northeast 479 551 29,000  Level FlightAware ADS-B
05:48AM 41.4750 -76.7188 61° Northeast 480 552 29,000  Level FlightAware ADS-B
05:48AM 41.4965 -76.6703 59° Northeast 481 554 29,000  Level FlightAware ADS-B
05:48AM 41.5097 -76.6431 57° Northeast 482 555 29,000  Level FlightAware ADS-B
05:49AM 41.5324 -76.6087 49° Northeast 486 559 29,000  Level FlightAware ADS-B
05:49AM 41.5520 -76.5834 44° Northeast 491 565 29,000  Level FlightAware ADS-B
05:49AM 41.5641 -76.5697 40° Northeast 496 571 29,000  Level FlightAware ADS-B
05:49AM 41.5917 -76.5432 36° Northeast 508 585 29,000  Level FlightAware ADS-B
05:50AM 41.6556 -76.4970 28° Northeast 531 611 29,000  Level FlightAware ADS-B
05:51AM 41.7712 -76.4143 28° Northeast 554 638 29,000  Level FlightAware ADS-B
05:51AM 41.8422 -76.3639 28° Northeast 558 642 29,000 -180 Level FlightAware ADS-B
05:52AM 41.9372 -76.2956 28° Northeast 550 633 28,800 -1,140 Descending FlightAware ADS-B
05:53AM 42.0210 -76.2350 28° Northeast 537 618 27,400 -2,460 Descending FlightAware
05:53AM 42.1050 -76.1730 29° Northeast 524 603 25,300 -2,400 Descending FlightAware
05:54AM 42.1870 -76.0530 47° Northeast 484 557 24,000 -960 Descending FlightAware
05:55AM 42.2260 -75.9420 65° Northeast 505 581 24,000  Level FlightAware
05:55AM 42.2680 -75.8210 65° Northeast 512 589 24,000  Level FlightAware
05:56AM 42.3070 -75.6970 67° East 508 585 24,000  Level FlightAware
05:57AM 42.3410 -75.5670 70° East 498 573 24,000 -600 Level FlightAware
05:58AM 42.3700 -75.4470 72° East 488 562 23,200 -1,860 Descending FlightAware
05:58AM 42.3980 -75.3280 72° East 482 555 21,500 -2,280 Descending FlightAware
05:59AM 42.4230 -75.2230 72° East 477 549 20,200 -1,020 Descending FlightAware
06:00AM 42.4460 -75.1260 72° East 477 549 20,200  Level FlightAware
06:00AM 42.4740 -75.0100 72° East 477 549 20,200  Level FlightAware
06:01AM 42.4950 -74.9230 72° East 477 549 20,200  Level FlightAware
06:02AM 42.5230 -74.8040 72° East 477 549 20,200  Level FlightAware
06:02AM 42.5450 -74.7120 72° East 477 549 20,200 -4,920 Level FlightAware
06:03AM 42.5642 -74.5486 72° East 316 364 12,000 -4,560 Descending Boston Center
06:04AM 42.5622 -74.4358 91° East 288 331 10,800 -1,200 Descending Boston Center
06:05AM 42.5619 -74.3286 90° East 286 329 9,600 -1,440 Descending Boston Center
06:06AM 42.5614 -74.2217 90° East 290 334 7,900 -1,620 Descending Boston Center
06:08AM 42.5594 -74.0892 91° East 287 330 6,100 -1,440 Descending Boston Center
06:08AM 42.5606 -74.0100 89° East 268 308 5,100 -1,560 Descending Boston Center
06:09AM 42.5575 -73.9142 92° East 239 275 3,300 -1,080 Descending Boston Center
06:10AM 42.5606 -73.8325 87° East 203 234 3,000 -420 Descending Boston Center
06:11AM 42.6047 -73.8053 24° Northeast 189 217 2,500 -600 Descending Boston Center
06:13AM 42.6506 -73.8036 North 157 181 1,900 -660 Descending Boston Center
06:14AM 42.6903 -73.8044 359° North 141 162 1,200 -720 Descending Boston Center
06:15AM 42.7278 -73.8081 356° North 129 148 500 -720 Descending Boston Center
06:18AM 42.7333 -73.8000 North  Level FlightAware Approximate
06:25AM 42.7491 -73.8020 North  Level Estimated